FIN28Y EFHK-EFIV
Flight info
| Callsign | FIN28Y |
|---|---|
| Flight time | N/A |
| Altitude | 36000 |
| Route | TEVRU Y75 USUPO DCT SOTIT |
| Aircraft | A321/M-SDE3FGHIRWY/LB1 |
Departure
| Time | 2026-04-26 15:06 |
|---|---|
| Airport | Helsinki Vantaa Airport (EFHK) |
Arrival
| Time | N/A |
|---|---|
| Airport | Ivalo Airport (EFIV) |
| Time | Latitude | Longitude | Altitude | Speed | Heading |
|---|---|---|---|---|---|
| 2026-04-26 14:28 | 60.31748 | 24.97125 | 167 ft | 0 kts | 243° |
| 2026-04-26 14:53 | 60.31748 | 24.97126 | 166 ft | 1 kts | 243° |
| 2026-04-26 14:54 | 60.31759 | 24.97167 | 166 ft | 4 kts | 242° |
| 2026-04-26 14:54 | 60.31774 | 24.97209 | 166 ft | 4 kts | 211° |
| 2026-04-26 14:54 | 60.31797 | 24.97220 | 166 ft | 4 kts | 163° |
| 2026-04-26 14:54 | 60.31810 | 24.97210 | 166 ft | 1 kts | 153° |
| 2026-04-26 14:55 | 60.31811 | 24.97209 | 166 ft | 0 kts | 153° |
| 2026-04-26 14:59 | 60.31799 | 24.97221 | 166 ft | 3 kts | 153° |
| 2026-04-26 14:59 | 60.31770 | 24.97251 | 166 ft | 6 kts | 153° |
| 2026-04-26 14:59 | 60.31724 | 24.97299 | 166 ft | 9 kts | 153° |
| 2026-04-26 14:59 | 60.31688 | 24.97335 | 166 ft | 8 kts | 153° |
| 2026-04-26 15:00 | 60.31653 | 24.97372 | 166 ft | 6 kts | 152° |
| 2026-04-26 15:00 | 60.31630 | 24.97428 | 164 ft | 4 kts | 99° |
| 2026-04-26 15:00 | 60.31624 | 24.97538 | 159 ft | 10 kts | 110° |
| 2026-04-26 15:00 | 60.31572 | 24.97605 | 156 ft | 10 kts | 152° |
| 2026-04-26 15:01 | 60.31512 | 24.97669 | 156 ft | 10 kts | 152° |
| 2026-04-26 15:01 | 60.31479 | 24.97704 | 156 ft | 1 kts | 152° |
| 2026-04-26 15:01 | 60.31475 | 24.97709 | 156 ft | 1 kts | 152° |
| 2026-04-26 15:01 | 60.31459 | 24.97726 | 156 ft | 4 kts | 152° |
| 2026-04-26 15:02 | 60.31426 | 24.97759 | 156 ft | 7 kts | 153° |
| 2026-04-26 15:02 | 60.31381 | 24.97805 | 157 ft | 8 kts | 153° |
| 2026-04-26 15:02 | 60.31330 | 24.97857 | 157 ft | 9 kts | 153° |
| 2026-04-26 15:02 | 60.31273 | 24.97915 | 158 ft | 10 kts | 153° |
| 2026-04-26 15:03 | 60.31207 | 24.97982 | 159 ft | 11 kts | 153° |
| 2026-04-26 15:03 | 60.31134 | 24.98057 | 159 ft | 13 kts | 153° |
| 2026-04-26 15:03 | 60.31047 | 24.98145 | 158 ft | 15 kts | 154° |
| 2026-04-26 15:03 | 60.30947 | 24.98234 | 158 ft | 16 kts | 156° |
| 2026-04-26 15:04 | 60.30842 | 24.98325 | 159 ft | 17 kts | 156° |
| 2026-04-26 15:04 | 60.30728 | 24.98425 | 158 ft | 19 kts | 156° |
| 2026-04-26 15:04 | 60.30671 | 24.98611 | 156 ft | 16 kts | 85° |
| 2026-04-26 15:04 | 60.30733 | 24.98756 | 159 ft | 13 kts | 17° |
| 2026-04-26 15:05 | 60.30815 | 24.98726 | 157 ft | 11 kts | 330° |
| 2026-04-26 15:05 | 60.30839 | 24.98697 | 156 ft | 12 kts | 330° |
| 2026-04-26 15:05 | 60.31129 | 24.98397 | 158 ft | 72 kts | 333° |
| 2026-04-26 15:05 | 60.31777 | 24.97727 | 154 ft | 134 kts | 332° |
| 2026-04-26 15:06 | 60.32686 | 24.96779 | 540 ft | 152 kts | 333° |
| 2026-04-26 15:06 | 60.33630 | 24.95787 | 1329 ft | 153 kts | 335° |
| 2026-04-26 15:06 | 60.34571 | 24.94805 | 1938 ft | 156 kts | 335° |
| 2026-04-26 15:06 | 60.35605 | 24.93758 | 2143 ft | 177 kts | 335° |
| 2026-04-26 15:07 | 60.38100 | 24.91218 | 2799 ft | 222 kts | 334° |
| 2026-04-26 15:07 | 60.39489 | 24.89790 | 3626 ft | 226 kts | 334° |
| 2026-04-26 15:07 | 60.40891 | 24.88339 | 4543 ft | 228 kts | 334° |
| 2026-04-26 15:08 | 60.42319 | 24.86911 | 5445 ft | 229 kts | 340° |
| 2026-04-26 15:08 | 60.43884 | 24.86308 | 6336 ft | 232 kts | 356° |
| 2026-04-26 15:08 | 60.45504 | 24.86157 | 7164 ft | 235 kts | 355° |
| 2026-04-26 15:08 | 60.47152 | 24.85995 | 7968 ft | 240 kts | 355° |
| 2026-04-26 15:09 | 60.48838 | 24.85829 | 8781 ft | 244 kts | 355° |
| 2026-04-26 15:09 | 60.50549 | 24.85661 | 9623 ft | 248 kts | 355° |
| 2026-04-26 15:09 | 60.52317 | 24.85495 | 10109 ft | 264 kts | 358° |
| 2026-04-26 15:09 | 60.54231 | 24.85716 | 10325 ft | 288 kts | 4° |
| 2026-04-26 15:10 | 60.56280 | 24.86140 | 10788 ft | 300 kts | 5° |
| 2026-04-26 15:10 | 60.57661 | 24.86471 | 11223 ft | 304 kts | 5° |
| 2026-04-26 15:10 | 60.60490 | 24.87168 | 12175 ft | 309 kts | 5° |
| 2026-04-26 15:10 | 60.62635 | 24.87688 | 12855 ft | 314 kts | 5° |
| 2026-04-26 15:11 | 60.64819 | 24.88222 | 13585 ft | 317 kts | 5° |
| 2026-04-26 15:11 | 60.67023 | 24.88754 | 14240 ft | 321 kts | 5° |
| 2026-04-26 15:11 | 60.69223 | 24.89273 | 14856 ft | 325 kts | 4° |
| 2026-04-26 15:11 | 60.71483 | 24.89793 | 15478 ft | 330 kts | 5° |
| 2026-04-26 15:12 | 60.73783 | 24.90319 | 16106 ft | 334 kts | 4° |
| 2026-04-26 15:12 | 60.76101 | 24.90854 | 16831 ft | 336 kts | 4° |
| 2026-04-26 15:12 | 60.78437 | 24.91399 | 17439 ft | 342 kts | 4° |
| 2026-04-26 15:12 | 60.80820 | 24.91959 | 17996 ft | 348 kts | 4° |
| 2026-04-26 15:13 | 60.83242 | 24.92525 | 18487 ft | 353 kts | 5° |
| 2026-04-26 15:13 | 60.85697 | 24.93104 | 19088 ft | 355 kts | 4° |
| 2026-04-26 15:13 | 60.88162 | 24.93678 | 19654 ft | 359 kts | 5° |
| 2026-04-26 15:13 | 60.90659 | 24.94258 | 20156 ft | 364 kts | 4° |
| 2026-04-26 15:14 | 60.93180 | 24.94846 | 20793 ft | 365 kts | 3° |
| 2026-04-26 15:14 | 60.95705 | 24.95431 | 21432 ft | 366 kts | 5° |
| 2026-04-26 15:14 | 60.97392 | 24.95828 | 21798 ft | 369 kts | 4° |
| 2026-04-26 15:14 | 60.99959 | 24.96434 | 22292 ft | 374 kts | 5° |
| 2026-04-26 15:15 | 61.02551 | 24.97040 | 22859 ft | 376 kts | 5° |
| 2026-04-26 15:15 | 61.05151 | 24.97655 | 23455 ft | 377 kts | 5° |
| 2026-04-26 15:15 | 61.07767 | 24.98278 | 23833 ft | 381 kts | 5° |
| 2026-04-26 15:15 | 61.10412 | 24.98906 | 24289 ft | 381 kts | 4° |
| 2026-04-26 15:16 | 61.13036 | 24.99525 | 24808 ft | 381 kts | 5° |
| 2026-04-26 15:16 | 61.15682 | 25.00151 | 25188 ft | 384 kts | 5° |
| 2026-04-26 15:16 | 61.18351 | 25.00787 | 25584 ft | 387 kts | 5° |
| 2026-04-26 15:16 | 61.21035 | 25.01435 | 25990 ft | 389 kts | 5° |
| 2026-04-26 15:17 | 61.23732 | 25.02091 | 26381 ft | 391 kts | 5° |
| 2026-04-26 15:17 | 61.25526 | 25.02526 | 26641 ft | 393 kts | 5° |
| 2026-04-26 15:17 | 61.29175 | 25.03406 | 27172 ft | 396 kts | 4° |
| 2026-04-26 15:17 | 61.31887 | 25.04057 | 27548 ft | 398 kts | 4° |
| 2026-04-26 15:18 | 61.34646 | 25.04718 | 27920 ft | 401 kts | 4° |
| 2026-04-26 15:18 | 61.37425 | 25.05388 | 28300 ft | 403 kts | 4° |
| 2026-04-26 15:18 | 61.40219 | 25.06062 | 28653 ft | 405 kts | 4° |
| 2026-04-26 15:18 | 61.43024 | 25.06736 | 29018 ft | 407 kts | 4° |
| 2026-04-26 15:19 | 61.45850 | 25.07422 | 29254 ft | 412 kts | 4° |
| 2026-04-26 15:19 | 61.48710 | 25.08120 | 29545 ft | 415 kts | 4° |
| 2026-04-26 15:19 | 61.51583 | 25.08820 | 29859 ft | 417 kts | 4° |
| 2026-04-26 15:19 | 61.54478 | 25.09524 | 30126 ft | 419 kts | 4° |
| 2026-04-26 15:20 | 61.57381 | 25.10231 | 30374 ft | 422 kts | 4° |
| 2026-04-26 15:20 | 61.60305 | 25.10944 | 30618 ft | 424 kts | 4° |
| 2026-04-26 15:20 | 61.63206 | 25.11654 | 30877 ft | 426 kts | 4° |
| 2026-04-26 15:20 | 61.66154 | 25.12380 | 31220 ft | 426 kts | 4° |
| 2026-04-26 15:21 | 61.69097 | 25.13109 | 31564 ft | 426 kts | 4° |
| 2026-04-26 15:21 | 61.72044 | 25.13844 | 31892 ft | 426 kts | 5° |
| 2026-04-26 15:21 | 61.74990 | 25.14579 | 32209 ft | 427 kts | 5° |
| 2026-04-26 15:21 | 61.77969 | 25.15315 | 32457 ft | 429 kts | 5° |
| 2026-04-26 15:22 | 61.80909 | 25.16043 | 32763 ft | 429 kts | 5° |
| 2026-04-26 15:22 | 61.83882 | 25.16787 | 33080 ft | 430 kts | 5° |
| 2026-04-26 15:22 | 61.86860 | 25.17533 | 33396 ft | 430 kts | 5° |
| 2026-04-26 15:22 | 61.89850 | 25.18280 | 33718 ft | 430 kts | 5° |
| 2026-04-26 15:23 | 61.92804 | 25.19016 | 33988 ft | 430 kts | 5° |
| 2026-04-26 15:23 | 61.95781 | 25.19762 | 34232 ft | 430 kts | 5° |
| 2026-04-26 15:23 | 61.98747 | 25.20505 | 34458 ft | 430 kts | 5° |
| 2026-04-26 15:23 | 62.01700 | 25.21248 | 34748 ft | 429 kts | 5° |
| 2026-04-26 15:24 | 62.04693 | 25.22004 | 35007 ft | 429 kts | 5° |
| 2026-04-26 15:24 | 62.07644 | 25.22750 | 35234 ft | 430 kts | 5° |
| 2026-04-26 15:24 | 62.10593 | 25.23491 | 35445 ft | 431 kts | 5° |
| 2026-04-26 15:24 | 62.13582 | 25.24244 | 35667 ft | 432 kts | 5° |
| 2026-04-26 15:25 | 62.16566 | 25.24996 | 35796 ft | 433 kts | 5° |
| 2026-04-26 15:25 | 62.18575 | 25.25505 | 35827 ft | 432 kts | 5° |
| 2026-04-26 15:25 | 62.25514 | 25.27279 | 35816 ft | 430 kts | 5° |
| 2026-04-26 15:26 | 62.31465 | 25.28817 | 35825 ft | 430 kts | 5° |
| 2026-04-26 15:26 | 62.37393 | 25.30346 | 35825 ft | 430 kts | 5° |
| 2026-04-26 15:27 | 62.43318 | 25.31863 | 35818 ft | 430 kts | 5° |
| 2026-04-26 15:27 | 62.49293 | 25.33401 | 35820 ft | 432 kts | 5° |
| 2026-04-26 15:28 | 62.55297 | 25.34962 | 35820 ft | 442 kts | 5° |
| 2026-04-26 15:28 | 62.61416 | 25.36573 | 35832 ft | 444 kts | 5° |
| 2026-04-26 15:29 | 62.67552 | 25.38202 | 35846 ft | 444 kts | 5° |
| 2026-04-26 15:30 | 62.79862 | 25.41428 | 35838 ft | 446 kts | 5° |
| 2026-04-26 15:30 | 62.86030 | 25.43067 | 35847 ft | 447 kts | 5° |
| 2026-04-26 15:31 | 62.95290 | 25.45563 | 35848 ft | 446 kts | 5° |
| 2026-04-26 15:32 | 63.03495 | 25.47771 | 35862 ft | 446 kts | 5° |
| 2026-04-26 15:32 | 63.10669 | 25.49700 | 35866 ft | 447 kts | 5° |
| 2026-04-26 15:33 | 63.16845 | 25.51382 | 35864 ft | 447 kts | 5° |
| 2026-04-26 15:33 | 63.23028 | 25.53079 | 35864 ft | 447 kts | 5° |
| 2026-04-26 15:34 | 63.29204 | 25.54770 | 35864 ft | 447 kts | 5° |
| 2026-04-26 15:34 | 63.35383 | 25.56462 | 35868 ft | 448 kts | 5° |
| 2026-04-26 15:35 | 63.41574 | 25.58171 | 35859 ft | 448 kts | 5° |
| 2026-04-26 15:35 | 63.47725 | 25.59884 | 35861 ft | 449 kts | 5° |
| 2026-04-26 15:36 | 63.53918 | 25.61632 | 35864 ft | 449 kts | 5° |
| 2026-04-26 15:36 | 63.60123 | 25.63356 | 35868 ft | 449 kts | 5° |
| 2026-04-26 15:37 | 63.66328 | 25.65094 | 35884 ft | 449 kts | 6° |
| 2026-04-26 15:37 | 63.72538 | 25.66848 | 35869 ft | 450 kts | 5° |
| 2026-04-26 15:38 | 63.78751 | 25.68602 | 35861 ft | 450 kts | 6° |
| 2026-04-26 15:38 | 63.84966 | 25.70383 | 35862 ft | 450 kts | 5° |
| 2026-04-26 15:39 | 63.91176 | 25.72175 | 35868 ft | 450 kts | 6° |
| 2026-04-26 15:39 | 63.96332 | 25.73672 | 35872 ft | 450 kts | 5° |
| 2026-04-26 15:40 | 64.03590 | 25.75745 | 35874 ft | 450 kts | 5° |
| 2026-04-26 15:40 | 64.09805 | 25.77537 | 35866 ft | 450 kts | 6° |
| 2026-04-26 15:41 | 64.15985 | 25.79340 | 35869 ft | 451 kts | 6° |
| 2026-04-26 15:41 | 64.22207 | 25.81166 | 35876 ft | 451 kts | 6° |
| 2026-04-26 15:42 | 64.28425 | 25.82999 | 35875 ft | 451 kts | 6° |
| 2026-04-26 15:42 | 64.34653 | 25.84836 | 35879 ft | 451 kts | 6° |
| 2026-04-26 15:43 | 64.40885 | 25.86682 | 35876 ft | 452 kts | 6° |
| 2026-04-26 15:44 | 64.50236 | 25.89491 | 35867 ft | 452 kts | 6° |
| 2026-04-26 15:44 | 64.59594 | 25.92287 | 35876 ft | 452 kts | 6° |
| 2026-04-26 15:45 | 64.68958 | 25.95120 | 35880 ft | 453 kts | 6° |
| 2026-04-26 15:46 | 64.78328 | 25.97985 | 35872 ft | 453 kts | 6° |
| 2026-04-26 15:46 | 64.83515 | 25.99588 | 35873 ft | 452 kts | 6° |
| 2026-04-26 15:47 | 64.93887 | 26.02793 | 35878 ft | 452 kts | 6° |
| 2026-04-26 15:48 | 65.00129 | 26.04711 | 35886 ft | 452 kts | 6° |
| 2026-04-26 15:48 | 65.06374 | 26.06662 | 35876 ft | 453 kts | 6° |
| 2026-04-26 15:49 | 65.12621 | 26.08629 | 35872 ft | 453 kts | 6° |
| 2026-04-26 15:49 | 65.18872 | 26.10587 | 35871 ft | 453 kts | 6° |
| 2026-04-26 15:50 | 65.25121 | 26.12553 | 35871 ft | 453 kts | 6° |
| 2026-04-26 15:50 | 65.31372 | 26.14543 | 35883 ft | 454 kts | 6° |
| 2026-04-26 15:51 | 65.37597 | 26.16537 | 35881 ft | 454 kts | 6° |
| 2026-04-26 15:51 | 65.43874 | 26.18543 | 35871 ft | 455 kts | 6° |
| 2026-04-26 15:52 | 65.50153 | 26.20562 | 35879 ft | 455 kts | 6° |
| 2026-04-26 15:52 | 65.56429 | 26.22593 | 35875 ft | 455 kts | 6° |
| 2026-04-26 15:53 | 65.62714 | 26.24643 | 35875 ft | 455 kts | 6° |
| 2026-04-26 15:53 | 65.68994 | 26.26694 | 35878 ft | 456 kts | 6° |
| 2026-04-26 15:54 | 65.75228 | 26.28746 | 35884 ft | 455 kts | 6° |
| 2026-04-26 15:54 | 65.81500 | 26.30818 | 35885 ft | 454 kts | 6° |
| 2026-04-26 15:55 | 65.87759 | 26.32885 | 35887 ft | 454 kts | 6° |
| 2026-04-26 15:55 | 65.94025 | 26.34964 | 35901 ft | 454 kts | 6° |
| 2026-04-26 15:56 | 66.00281 | 26.37068 | 35895 ft | 454 kts | 6° |
| 2026-04-26 15:56 | 66.06542 | 26.39189 | 35886 ft | 454 kts | 6° |
| 2026-04-26 15:57 | 66.12814 | 26.41322 | 35888 ft | 455 kts | 6° |
| 2026-04-26 15:57 | 66.19085 | 26.43460 | 35887 ft | 455 kts | 6° |
| 2026-04-26 15:58 | 66.25312 | 26.45576 | 35887 ft | 455 kts | 6° |
| 2026-04-26 15:58 | 66.31584 | 26.47709 | 35889 ft | 455 kts | 6° |
| 2026-04-26 15:59 | 66.37857 | 26.49872 | 35890 ft | 456 kts | 6° |
| 2026-04-26 15:59 | 66.44099 | 26.52066 | 35857 ft | 445 kts | 6° |
| 2026-04-26 16:00 | 66.50183 | 26.54191 | 35875 ft | 440 kts | 6° |
| 2026-04-26 16:00 | 66.56247 | 26.56302 | 35877 ft | 439 kts | 6° |
| 2026-04-26 16:01 | 66.62310 | 26.58427 | 35788 ft | 441 kts | 6° |
| 2026-04-26 16:01 | 66.65345 | 26.59501 | 35483 ft | 439 kts | 6° |
| 2026-04-26 16:01 | 66.68366 | 26.60571 | 35003 ft | 437 kts | 6° |
| 2026-04-26 16:01 | 66.71372 | 26.61644 | 34529 ft | 436 kts | 6° |
| 2026-04-26 16:02 | 66.74331 | 26.62702 | 34052 ft | 434 kts | 6° |
| 2026-04-26 16:02 | 66.77358 | 26.63788 | 33521 ft | 432 kts | 6° |
| 2026-04-26 16:02 | 66.80284 | 26.64834 | 33055 ft | 428 kts | 6° |
| 2026-04-26 16:02 | 66.82274 | 26.65545 | 32733 ft | 426 kts | 7° |
| 2026-04-26 16:03 | 66.86133 | 26.66928 | 32119 ft | 421 kts | 7° |
| 2026-04-26 16:03 | 66.89023 | 26.67965 | 31644 ft | 417 kts | 7° |
| 2026-04-26 16:03 | 66.91880 | 26.68994 | 31180 ft | 413 kts | 7° |
| 2026-04-26 16:03 | 66.94718 | 26.70019 | 30721 ft | 410 kts | 7° |
| 2026-04-26 16:04 | 66.97527 | 26.71041 | 30269 ft | 406 kts | 7° |
| 2026-04-26 16:04 | 67.00314 | 26.72062 | 29796 ft | 403 kts | 7° |
| 2026-04-26 16:04 | 67.03074 | 26.73075 | 29326 ft | 397 kts | 7° |
| 2026-04-26 16:04 | 67.05753 | 26.74059 | 28906 ft | 391 kts | 7° |
| 2026-04-26 16:05 | 67.08427 | 26.75040 | 28495 ft | 385 kts | 7° |
| 2026-04-26 16:05 | 67.11061 | 26.76008 | 28090 ft | 379 kts | 7° |
| 2026-04-26 16:05 | 67.13655 | 26.76966 | 27699 ft | 374 kts | 7° |
| 2026-04-26 16:05 | 67.16219 | 26.77913 | 27316 ft | 369 kts | 7° |
| 2026-04-26 16:06 | 67.18748 | 26.78842 | 26933 ft | 365 kts | 7° |
| 2026-04-26 16:06 | 67.21248 | 26.79764 | 26566 ft | 361 kts | 7° |
| 2026-04-26 16:06 | 67.23723 | 26.80683 | 26210 ft | 357 kts | 7° |
| 2026-04-26 16:06 | 67.26175 | 26.81594 | 25843 ft | 354 kts | 7° |
| 2026-04-26 16:07 | 67.28595 | 26.82494 | 25473 ft | 350 kts | 7° |
| 2026-04-26 16:07 | 67.30968 | 26.83379 | 25112 ft | 347 kts | 7° |
| 2026-04-26 16:07 | 67.33346 | 26.84264 | 24734 ft | 344 kts | 7° |
| 2026-04-26 16:07 | 67.35703 | 26.85142 | 24361 ft | 341 kts | 7° |
| 2026-04-26 16:08 | 67.38044 | 26.86021 | 23991 ft | 337 kts | 7° |
| 2026-04-26 16:08 | 67.39581 | 26.86598 | 23735 ft | 336 kts | 7° |
| 2026-04-26 16:08 | 67.42657 | 26.87757 | 23189 ft | 332 kts | 7° |
| 2026-04-26 16:08 | 67.44924 | 26.88622 | 22785 ft | 327 kts | 7° |
| 2026-04-26 16:09 | 67.47160 | 26.89478 | 22418 ft | 322 kts | 7° |
| 2026-04-26 16:09 | 67.49363 | 26.90322 | 22045 ft | 318 kts | 7° |
| 2026-04-26 16:09 | 67.51537 | 26.91143 | 21675 ft | 313 kts | 7° |
| 2026-04-26 16:09 | 67.53679 | 26.91948 | 21307 ft | 309 kts | 7° |
| 2026-04-26 16:10 | 67.55797 | 26.92749 | 20950 ft | 305 kts | 7° |
| 2026-04-26 16:10 | 67.57860 | 26.93542 | 20585 ft | 302 kts | 7° |
| 2026-04-26 16:10 | 67.59928 | 26.94343 | 20230 ft | 299 kts | 7° |
| 2026-04-26 16:10 | 67.61974 | 26.95140 | 19869 ft | 296 kts | 7° |
| 2026-04-26 16:11 | 67.63997 | 26.95927 | 19549 ft | 292 kts | 7° |
| 2026-04-26 16:11 | 67.66004 | 26.96705 | 19195 ft | 290 kts | 7° |
| 2026-04-26 16:11 | 67.67999 | 26.97474 | 18847 ft | 289 kts | 7° |
| 2026-04-26 16:11 | 67.69316 | 26.97975 | 18619 ft | 288 kts | 6° |
| 2026-04-26 16:12 | 67.71297 | 26.98729 | 18272 ft | 287 kts | 6° |
| 2026-04-26 16:12 | 67.73273 | 26.99483 | 17898 ft | 286 kts | 6° |
| 2026-04-26 16:12 | 67.77187 | 27.00990 | 17215 ft | 283 kts | 7° |
| 2026-04-26 16:13 | 67.79127 | 27.01755 | 16871 ft | 281 kts | 7° |
| 2026-04-26 16:13 | 67.81056 | 27.02515 | 16530 ft | 279 kts | 7° |
| 2026-04-26 16:13 | 67.82974 | 27.03265 | 16184 ft | 278 kts | 6° |
| 2026-04-26 16:13 | 67.84882 | 27.04003 | 15857 ft | 276 kts | 6° |
| 2026-04-26 16:14 | 67.86777 | 27.04736 | 15526 ft | 275 kts | 6° |
| 2026-04-26 16:14 | 67.88659 | 27.05470 | 15200 ft | 273 kts | 7° |
| 2026-04-26 16:14 | 67.92401 | 27.06952 | 14545 ft | 270 kts | 7° |
| 2026-04-26 16:15 | 67.94258 | 27.07691 | 14223 ft | 269 kts | 7° |
| 2026-04-26 16:15 | 67.96105 | 27.08423 | 13902 ft | 268 kts | 7° |
| 2026-04-26 16:15 | 67.97939 | 27.09152 | 13571 ft | 266 kts | 7° |
| 2026-04-26 16:16 | 68.01542 | 27.10575 | 12931 ft | 261 kts | 6° |
| 2026-04-26 16:16 | 68.03338 | 27.11285 | 12616 ft | 260 kts | 6° |
| 2026-04-26 16:16 | 68.05120 | 27.11995 | 12306 ft | 259 kts | 6° |
| 2026-04-26 16:16 | 68.06895 | 27.12706 | 11995 ft | 257 kts | 6° |
| 2026-04-26 16:17 | 68.08659 | 27.13410 | 11673 ft | 256 kts | 6° |
| 2026-04-26 16:17 | 68.10418 | 27.14110 | 11375 ft | 255 kts | 6° |
| 2026-04-26 16:17 | 68.12165 | 27.14806 | 11070 ft | 253 kts | 6° |
| 2026-04-26 16:17 | 68.13898 | 27.15495 | 10763 ft | 251 kts | 6° |
| 2026-04-26 16:18 | 68.15614 | 27.16178 | 10466 ft | 248 kts | 6° |